Time;durP1;ratioP1;P1;durP2;ratioP2;P2;SDS_P1;SDS_P2;PMS_P1;PMS_P2;Temp;Humidity;BMP_temperature;BMP_pressure;BME280_temperature;BME280_humidity;BME280_pressure;Samples;Min_cycle;Max_cycle;Signal;HPM_P1;HPM_P2
2021/11/12 00:13:21;;;;;;;;;93.00;66.50;;;;;6.60;84.38;101848.88;5048586;28;45332;-60
2021/11/12 00:15:51;;;;;;;;;92.50;70.00;;;;;6.58;85.01;101855.75;5050125;28;45686;-59
2021/11/12 00:18:18;;;;;;;;;98.25;74.00;;;;;6.59;84.59;101852.31;5050910;28;45326;-59
2021/11/12 00:20:45;;;;;;;;;89.50;67.75;;;;;6.58;84.83;101853.16;5049766;28;45831;-59
2021/11/12 00:23:11;;;;;;;;;94.50;70.25;;;;;6.56;84.75;101849.72;5047055;28;46159;-59
2021/11/12 00:25:37;;;;;;;;;95.50;70.75;;;;;6.55;84.50;101855.75;5050181;28;45429;-59
2021/11/12 00:28:02;;;;;;;;;96.25;74.25;;;;;6.53;84.58;101844.53;5049695;28;45457;-60
2021/11/12 00:30:48;;;;;;;;;96.75;69.25;;;;;6.55;84.64;101848.00;5051062;28;45755;-60
2021/11/12 00:38:31;;;;;;;;;100.50;71.75;;;;;6.51;84.73;101831.63;5061188;28;45356;-61
2021/11/12 00:41:00;;;;;;;;;99.50;77.00;;;;;6.51;84.45;101830.75;5056506;28;45268;-59
2021/11/12 00:46:21;;;;;;;;;99.00;73.75;;;;;6.47;84.49;101829.88;5059447;28;45472;-59
2021/11/12 00:56:22;;;;;;;;;96.75;74.75;;;;;6.43;84.54;101837.59;5060991;28;45571;-59
2021/11/12 00:58:48;;;;;;;;;95.75;69.50;;;;;6.43;84.48;101845.34;5060654;28;45272;-59
2021/11/12 01:01:13;;;;;;;;;95.25;76.75;;;;;6.41;84.70;101850.50;5056178;28;45618;-59
2021/11/12 01:03:40;;;;;;;;;92.50;69.00;;;;;6.38;84.57;101845.28;5055265;28;46152;-59
2021/11/12 01:06:05;;;;;;;;;93.50;67.00;;;;;6.34;84.71;101844.41;5059454;28;45350;-59
2021/11/12 01:08:31;;;;;;;;;98.50;77.50;;;;;6.34;84.61;101835.78;5059981;28;45486;-59
2021/11/12 01:10:57;;;;;;;;;97.50;76.50;;;;;6.33;84.54;101834.94;5059140;28;45462;-59
2021/11/12 01:13:23;;;;;;;;;96.75;73.75;;;;;6.32;84.46;101824.59;5060068;28;46065;-59
2021/11/12 01:15:49;;;;;;;;;95.75;75.00;;;;;6.32;84.95;101827.19;5060601;28;45658;-59
2021/11/12 01:18:15;;;;;;;;;92.25;69.00;;;;;6.31;84.82;101822.88;5055196;28;45395;-59
2021/11/12 01:20:40;;;;;;;;;93.75;75.50;;;;;6.30;84.83;101813.41;5051679;28;45317;-59
2021/11/12 01:23:06;;;;;;;;;101.50;74.00;;;;;6.24;nan;101814.22;5055194;28;45409;-59
2021/11/12 01:25:32;;;;;;;;;99.75;72.75;;;;;6.28;84.45;101823.72;5049894;28;45311;-59
2021/11/12 01:27:58;;;;;;;;;98.25;71.00;;;;;6.24;84.03;101811.63;5057738;28;45400;-59
2021/11/12 01:30:23;;;;;;;;;98.75;74.75;;;;;6.26;84.30;101814.22;5058006;28;45625;-59
2021/11/12 01:32:49;;;;;;;;;96.25;77.00;;;;;6.21;84.42;101814.22;5057707;28;45386;-59
2021/11/12 01:35:17;;;;;;;;;96.25;76.00;;;;;6.21;84.85;101813.34;5058121;28;45414;-59
2021/11/12 01:37:44;;;;;;;;;98.25;71.50;;;;;6.19;84.55;101805.56;5058899;28;45240;-59
2021/11/12 01:40:19;;;;;;;;;101.00;76.50;;;;;6.22;84.20;101799.59;5060290;28;45572;-59
2021/11/12 01:46:21;;;;;;;;;95.50;71.75;;;;;6.18;84.42;101814.16;5047805;28;45571;-58
2021/11/12 01:56:41;;;;;;;;;93.00;69.25;;;;;6.19;84.40;101809.84;5060024;28;45176;-58
2021/11/12 01:59:11;;;;;;;;;84.50;65.50;;;;;6.15;84.09;101796.06;5059613;28;45244;-59
2021/11/12 02:01:52;;;;;;;;;88.75;67.75;;;;;6.13;84.28;101797.78;5059765;28;45335;-60
2021/11/12 02:04:24;;;;;;;;;92.25;65.00;;;;;6.13;84.72;101794.34;5053665;28;46321;-60
2021/11/12 02:06:49;;;;;;;;;90.75;65.25;;;;;6.12;84.53;101790.03;5058793;28;45707;-60
2021/11/12 02:09:20;;;;;;;;;88.25;63.00;;;;;6.11;84.63;101791.75;5059902;28;45503;-59
2021/11/12 02:11:54;;;;;;;;;91.75;67.25;;;;;6.07;84.89;101779.69;5059674;28;45443;-59
2021/11/12 02:14:21;;;;;;;;;83.75;62.25;;;;;6.02;84.64;101771.03;5059875;28;47057;-59
2021/11/12 02:17:02;;;;;;;;;84.50;62.25;;;;;6.01;85.14;101772.75;5059506;28;45732;-59
2021/11/12 02:19:28;;;;;;;;;76.25;58.25;;;;;5.99;85.30;101782.19;5059103;28;45315;-59
2021/11/12 02:22:07;;;;;;;;;85.00;61.75;;;;;5.94;85.21;101770.97;5059534;28;45271;-59
2021/11/12 02:24:37;;;;;;;;;83.00;60.50;;;;;5.94;84.89;101780.41;5047739;28;47155;-59
2021/11/12 02:27:05;;;;;;;;;82.25;58.25;;;;;5.90;85.45;101774.38;5059505;28;45342;-59
2021/11/12 02:29:31;;;;;;;;;78.25;57.50;;;;;5.87;85.32;101778.63;5059539;28;45312;-59
2021/11/12 02:31:57;;;;;;;;;78.25;56.00;;;;;5.83;85.29;101782.03;5059534;28;45267;-59
2021/11/12 02:34:22;;;;;;;;;76.50;57.75;;;;;5.83;85.56;101767.41;5062206;28;46193;-58
2021/11/12 02:36:48;;;;;;;;;77.00;54.50;;;;;5.80;86.16;101764.78;5058399;28;45414;-59
2021/11/12 02:39:15;;;;;;;;;77.50;56.25;;;;;5.77;86.27;101759.59;5060995;28;45491;-59
2021/11/12 02:41:41;;;;;;;;;75.50;55.00;;;;;5.79;86.08;101760.47;5063345;28;45445;-59
2021/11/12 02:44:08;;;;;;;;;77.50;59.00;;;;;5.84;86.41;101763.13;5062596;28;46311;-59
2021/11/12 02:46:34;;;;;;;;;68.00;50.50;;;;;5.85;86.41;101759.69;5062330;28;45395;-59
2021/11/12 02:49:01;;;;;;;;;70.50;54.25;;;;;5.83;86.53;101746.78;5062979;28;45235;-59
2021/11/12 02:51:31;;;;;;;;;77.75;54.00;;;;;5.90;86.37;101768.34;5063094;28;45185;-59
2021/11/12 02:53:58;;;;;;;;;73.50;55.50;;;;;5.91;86.71;101762.34;5056147;28;46172;-59
2021/11/12 02:56:31;;;;;;;;;69.00;51.75;;;;;5.92;86.66;101764.94;5062943;28;45705;-59
2021/11/12 02:59:04;;;;;;;;;71.75;54.00;;;;;5.90;86.49;101758.03;5062662;28;45355;-59
2021/11/12 03:01:36;;;;;;;;;74.25;54.50;;;;;5.91;87.13;101759.75;5062731;28;45426;-59
2021/11/12 03:04:03;;;;;;;;;68.50;51.75;;;;;5.90;86.83;101755.44;5062775;28;46374;-59
2021/11/12 03:06:28;;;;;;;;;71.25;52.00;;;;;5.86;85.93;101753.69;5060229;28;45892;-59
2021/11/12 03:09:01;;;;;;;;;66.75;47.25;;;;;5.88;86.31;101763.16;5052322;28;45894;-59
2021/11/12 03:11:27;;;;;;;;;66.25;49.25;;;;;5.85;86.12;101755.38;5062421;28;45224;-59
2021/11/12 03:13:54;;;;;;;;;65.25;50.75;;;;;5.82;86.20;101752.78;5062512;28;45328;-59
2021/11/12 03:16:20;;;;;;;;;67.50;47.75;;;;;5.77;86.37;101749.28;5062339;28;45850;-59
2021/11/12 03:18:46;;;;;;;;;22.50;2.00;;;;;5.74;86.21;101755.28;5061994;28;45334;-58
2021/11/12 03:21:16;;;;;;;;;62.75;47.75;;;;;5.68;85.52;101755.25;5062349;28;46776;-59
2021/11/12 03:23:57;;;;;;;;;61.00;47.25;;;;;5.62;85.99;101749.19;5054894;28;46236;-59
2021/11/12 03:26:38;;;;;;;;;61.50;46.75;;;;;5.54;85.71;101743.06;5060490;28;45419;-59
2021/11/12 04:02:15;;;;;;;;;63.50;49.00;;;;;5.53;86.52;101739.63;5061939;28;45492;-58
2021/11/12 04:07:20;;;;;;;;;62.50;48.50;;;;;5.54;86.72;101723.31;5061347;28;45933;-58
2021/11/12 04:40:31;;;;;;;;;58.25;45.25;;;;;5.70;86.12;101665.84;5059879;28;45825;-60
2021/11/12 05:50:38;;;;;;;;;59.00;44.75;;;;;5.59;85.80;101603.00;5060267;28;45434;-60
2021/11/12 05:55:45;;;;;;;;;60.50;43.00;;;;;5.52;85.80;101590.94;5059345;28;45380;-61
2021/11/12 05:58:10;;;;;;;;;57.25;42.00;;;;;5.45;85.29;101581.44;5059688;28;45327;-61
2021/11/12 06:00:36;;;;;;;;;59.25;42.00;;;;;5.46;86.23;101590.91;5059966;28;45287;-61
2021/11/12 06:03:01;;;;;;;;;55.00;43.75;;;;;5.46;86.19;101596.94;5060191;28;45292;-61
2021/11/12 06:05:27;;;;;;;;;51.75;42.00;;;;;5.48;85.92;101602.09;5059425;28;46499;-62
2021/11/12 06:07:52;;;;;;;;;64.00;44.50;;;;;5.47;86.23;101603.81;5058549;28;45356;-60
2021/11/12 06:10:18;;;;;;;;;65.50;43.00;;;;;5.51;85.28;101602.13;5059639;28;45402;-60
2021/11/12 06:12:44;;;;;;;;;50.75;42.25;;;;;5.48;85.40;101607.25;5059618;28;45253;-61
2021/11/12 06:15:10;;;;;;;;;50.75;42.00;;;;;5.43;85.84;101602.06;5050810;28;45886;-61
2021/11/12 06:17:36;;;;;;;;;44.00;36.75;;;;;5.45;85.77;101592.63;5051619;28;45251;-60
2021/11/12 06:20:02;;;;;;;;;50.25;43.00;;;;;5.48;85.67;101602.09;5045174;28;45271;-60
2021/11/12 06:22:29;;;;;;;;;55.25;42.00;;;;;5.42;85.41;101597.75;5057541;28;45288;-60
2021/11/12 06:24:55;;;;;;;;;45.25;39.75;;;;;5.39;85.60;101596.84;5048377;28;45521;-60
2021/11/12 06:27:20;;;;;;;;;45.75;38.50;;;;;5.35;85.88;101600.25;5058528;28;45325;-60
2021/11/12 06:29:46;;;;;;;;;53.00;40.00;;;;;5.30;85.86;101599.38;5058014;28;45276;-60
2021/11/12 06:32:12;;;;;;;;;55.50;42.50;;;;;5.23;85.76;101603.63;5059297;28;45310;-60
2021/11/12 06:34:39;;;;;;;;;49.25;35.50;;;;;5.23;86.53;101600.19;5059433;28;45407;-60
2021/11/12 06:37:04;;;;;;;;;48.00;37.50;;;;;5.26;87.02;101587.31;5058578;28;45285;-62
2021/11/12 06:39:30;;;;;;;;;60.00;43.50;;;;;5.32;87.06;101585.66;5059416;28;45370;-62
2021/11/12 06:41:58;;;;;;;;;44.50;37.00;;;;;5.32;86.72;101580.50;5059549;28;45276;-58
2021/11/12 06:52:28;;;;;;;;;51.50;43.00;;;;;5.28;86.91;101577.88;5057637;28;45260;-60
2021/11/12 06:54:55;;;;;;;;;55.25;40.25;;;;;5.29;86.38;101580.47;5053813;28;47395;-62
2021/11/12 06:57:21;;;;;;;;;42.50;39.00;;;;;5.34;87.29;101586.53;5057682;28;45946;-70
2021/11/12 06:59:48;;;;;;;;;54.75;43.25;;;;;5.41;86.39;101587.44;5058953;28;45346;-66
2021/11/12 07:02:16;;;;;;;;;51.75;40.75;;;;;5.40;86.92;101583.97;5058445;28;45341;-69
2021/11/12 07:04:42;;;;;;;;;45.75;36.50;;;;;5.47;87.05;101595.22;5058533;28;45248;-69
2021/11/12 07:07:09;;;;;;;;;47.75;39.25;;;;;5.49;86.07;101585.78;5058618;28;45653;-64
2021/11/12 07:09:35;;;;;;;;;42.25;39.25;;;;;5.51;86.14;101589.22;5057361;28;45316;-62
2021/11/12 07:12:01;;;;;;;;;46.25;37.25;;;;;5.43;87.10;101578.00;5054018;28;45604;-62
2021/11/12 07:14:26;;;;;;;;;40.25;33.75;;;;;5.43;86.46;101585.75;5052768;28;45387;-62
2021/11/12 07:16:52;;;;;;;;;50.50;36.50;;;;;5.47;87.20;101582.31;5056901;28;45654;-60
2021/11/12 07:19:17;;;;;;;;;49.50;39.25;;;;;5.58;86.49;101585.81;5040134;28;45996;-63
2021/11/12 07:21:43;;;;;;;;;38.00;32.00;;;;;5.61;86.94;101583.28;5060258;28;45859;-62
2021/11/12 07:24:08;;;;;;;;;41.25;32.25;;;;;5.70;86.42;101580.75;5060614;28;45324;-67
2021/11/12 07:26:34;;;;;;;;;46.00;33.50;;;;;5.68;86.45;101585.03;5061997;28;45456;-65
2021/11/12 07:28:59;;;;;;;;;46.00;36.50;;;;;5.69;86.43;101580.75;5062001;28;45388;-64
2021/11/12 07:31:25;;;;;;;;;39.75;33.00;;;;;5.71;86.51;101574.75;5062018;28;45556;-63
2021/11/12 07:33:52;;;;;;;;;40.75;30.00;;;;;5.75;85.94;101570.47;5061781;28;46961;-63
2021/11/12 07:36:20;;;;;;;;;37.25;32.25;;;;;5.67;86.11;101574.72;5060928;28;45746;-63
2021/11/12 07:46:42;;;;;;;;;35.50;22.75;;;;;5.68;86.28;101545.50;5060338;28;45410;-63
2021/11/12 07:49:09;;;;;;;;;41.00;30.00;;;;;5.68;86.34;101551.50;5061174;28;45422;-63
2021/11/12 07:51:36;;;;;;;;;42.00;33.50;;;;;5.64;86.21;101552.38;5061745;28;45689;-63
2021/11/12 07:54:02;;;;;;;;;46.50;32.00;;;;;5.68;86.50;101554.09;5054988;28;46235;-63
2021/11/12 07:56:28;;;;;;;;;37.25;32.00;;;;;5.72;86.52;101562.72;5061870;28;45252;-63
2021/11/12 07:58:53;;;;;;;;;33.75;30.00;;;;;5.72;86.41;101571.31;5060026;28;45461;-71
2021/11/12 08:01:19;;;;;;;;;43.00;33.25;;;;;5.72;86.78;101579.03;5061409;28;45331;-68
2021/11/12 08:03:47;;;;;;;;;43.25;33.50;;;;;5.77;86.32;101585.09;5052066;28;45905;-68
2021/11/12 08:06:16;;;;;;;;;37.00;30.75;;;;;5.77;86.35;101597.97;5050093;28;45262;-69
2021/11/12 08:08:47;;;;;;;;;39.25;30.25;;;;;5.77;86.75;101600.56;5052429;28;45508;-69
2021/11/12 08:11:18;;;;;;;;;47.25;33.75;;;;;5.85;86.97;101617.81;5059993;28;45603;-68
2021/11/12 08:14:04;;;;;;;;;38.50;35.25;;;;;5.92;86.83;101609.28;5061431;28;45364;-69
2021/11/12 08:16:41;;;;;;;;;41.25;37.50;;;;;6.09;86.34;101598.19;5059667;28;45390;-69
2021/11/12 08:19:11;;;;;;;;;43.00;27.50;;;;;6.21;86.10;101589.66;5061070;28;45381;-68
2021/11/12 08:27:04;;;;;;;;;54.25;37.25;;;;;6.56;85.40;101579.41;5061279;28;45224;-67
2021/11/12 08:37:49;;;;;;;;;51.75;37.25;;;;;6.94;84.01;101571.72;5060047;28;45245;-69
2021/11/12 08:43:07;;;;;;;;;48.25;36.25;;;;;6.83;83.97;101582.94;5060939;28;45236;-68
2021/11/12 08:45:42;;;;;;;;;56.75;40.25;;;;;6.83;83.99;101582.94;5059284;28;45165;-69
2021/11/12 08:48:16;;;;;;;;;47.50;38.75;;;;;6.90;84.13;101575.19;5060887;28;45265;-69
2021/11/12 08:50:42;;;;;;;;;58.50;40.00;;;;;7.00;83.88;101563.97;5060385;28;45353;-68
2021/11/12 08:53:10;;;;;;;;;46.50;35.25;;;;;7.11;83.41;101558.81;5056243;28;45469;-68
2021/11/12 08:55:37;;;;;;;;;46.75;39.25;;;;;7.27;83.61;101549.34;5058234;28;45476;-69
2021/11/12 08:58:06;;;;;;;;;45.25;37.50;;;;;7.39;83.51;101544.13;5060625;28;45300;-68
2021/11/12 09:00:33;;;;;;;;;49.25;37.25;;;;;7.48;82.41;101558.78;5060618;28;46297;-66
2021/11/12 09:02:59;;;;;;;;;36.50;33.50;;;;;7.56;82.50;101563.06;5056143;28;45443;-68
2021/11/12 09:05:25;;;;;;;;;60.75;44.00;;;;;7.68;82.28;101564.78;5059295;28;46687;-68
2021/11/12 09:07:52;;;;;;;;;56.25;40.50;;;;;7.77;82.14;101574.25;5060187;28;45240;-68
2021/11/12 09:10:19;;;;;;;;;52.25;38.50;;;;;7.91;81.72;101572.47;5060329;28;45322;-68
2021/11/12 09:12:49;;;;;;;;;51.00;37.25;;;;;8.04;81.56;101571.59;5060373;28;45273;-68
2021/11/12 09:15:24;;;;;;;;;56.25;37.25;;;;;8.14;80.70;101560.31;5059751;28;46199;-68
2021/11/12 09:17:49;;;;;;;;;41.50;39.00;;;;;8.28;80.20;101562.84;5058285;28;45866;-68
2021/11/12 09:20:15;;;;;;;;;45.00;37.00;;;;;8.35;80.43;101556.78;5058844;28;45413;-68
2021/11/12 09:22:41;;;;;;;;;50.75;40.00;;;;;8.53;80.04;101563.59;5054971;28;46793;-68
2021/11/12 09:25:08;;;;;;;;;60.50;39.50;;;;;8.69;79.93;101552.28;5047893;28;46281;-68
2021/11/12 09:27:34;;;;;;;;;61.25;42.75;;;;;8.81;79.55;101544.44;5059690;28;45402;-60
2021/11/12 09:30:00;;;;;;;;;49.50;40.00;;;;;9.19;79.98;101542.38;5060303;28;45422;-59
2021/11/12 09:32:25;;;;;;;;;52.25;40.50;;;;;9.95;78.91;101528.59;5060037;28;45292;-58
2021/11/12 09:34:51;;;;;;;;;58.75;42.50;;;;;10.54;77.27;101527.81;5059933;28;45153;-58
2021/11/12 09:37:22;;;;;;;;;50.75;40.25;;;;;11.21;75.18;101537.16;5055573;28;45220;-58
2021/11/12 09:39:59;;;;;;;;;50.50;38.50;;;;;12.03;73.87;101537.38;5060220;28;45330;-59
2021/11/12 09:42:28;;;;;;;;;48.50;39.25;;;;;12.52;71.54;101522.41;5060121;28;45351;-57
2021/11/12 09:44:54;;;;;;;;;53.00;42.00;;;;;12.50;71.12;101519.84;5059060;28;45307;-58
2021/11/12 09:47:27;;;;;;;;;53.00;39.25;;;;;12.24;70.00;101522.19;5058796;28;45934;-58
2021/11/12 09:50:06;;;;;;;;;48.00;38.00;;;;;11.94;70.11;101506.28;5059801;28;45281;-58
2021/11/12 09:52:32;;;;;;;;;48.25;38.25;;;;;11.81;69.77;101510.03;5059210;28;45331;-59
2021/11/12 09:54:59;;;;;;;;;50.50;36.50;;;;;11.71;69.99;101506.72;5053710;28;45342;-59
2021/11/12 09:57:25;;;;;;;;;51.50;40.75;;;;;11.99;71.02;101503.59;5058934;28;45349;-59
2021/11/12 09:59:53;;;;;;;;;52.25;37.75;;;;;13.30;68.87;101497.88;5059553;28;45363;-58
2021/11/12 10:02:19;;;;;;;;;49.25;37.25;;;;;13.64;65.97;101490.84;5044600;28;45605;-59
2021/11/12 10:04:45;;;;;;;;;49.50;39.00;;;;;13.90;65.97;101489.25;5047921;28;45966;-59
2021/11/12 10:07:14;;;;;;;;;51.25;37.25;;;;;14.06;64.71;101489.66;5048576;28;45927;-59
2021/11/12 10:09:42;;;;;;;;;53.00;41.25;;;;;14.05;65.45;101486.19;5052612;28;45465;-59
2021/11/12 10:12:09;;;;;;;;;52.50;39.50;;;;;15.27;64.77;101492.72;5059417;28;45512;-59
2021/11/12 10:14:47;;;;;;;;;40.00;35.25;;;;;15.42;62.45;101493.94;5053168;28;46240;-59
2021/11/12 10:17:13;;;;;;;;;51.00;39.25;;;;;14.97;61.54;101498.97;5047244;28;45901;-59
2021/11/12 10:19:46;;;;;;;;;56.00;42.75;;;;;15.28;63.65;101502.28;5055425;28;45497;-58
2021/11/12 10:22:12;;;;;;;;;49.00;36.25;;;;;16.77;61.96;101498.41;5059361;28;45451;-58
2021/11/12 10:24:40;;;;;;;;;56.00;42.00;;;;;17.05;57.93;101490.25;5046659;28;45474;-58
2021/11/12 10:27:12;;;;;;;;;53.25;40.00;;;;;16.79;57.14;101488.69;5049841;28;45166;-59
2021/11/12 10:29:45;;;;;;;;;56.25;41.75;;;;;16.51;56.87;101481.06;5055307;28;45393;-59
2021/11/12 10:32:14;;;;;;;;;47.75;37.50;;;;;16.12;57.67;101476.47;5048481;28;45318;-59
2021/11/12 10:34:42;;;;;;;;;50.50;40.25;;;;;16.35;56.67;101493.06;5047752;28;45397;-58
2021/11/12 10:37:22;;;;;;;;;53.75;38.00;;;;;15.90;56.39;101499.19;5048451;28;45782;-59
2021/11/12 10:40:04;;;;;;;;;59.50;40.50;;;;;15.37;57.02;101501.94;5050423;28;45359;-59
2021/11/12 10:42:33;;;;;;;;;57.50;44.75;;;;;14.79;56.90;101492.59;5054724;28;45234;-59
2021/11/12 10:45:10;;;;;;;;;51.00;40.75;;;;;14.31;58.04;101483.63;5058111;28;46200;-59
2021/11/12 10:47:53;;;;;;;;;50.50;41.00;;;;;14.07;58.14;101480.91;5058137;28;45409;-58
2021/11/12 10:50:21;;;;;;;;;55.50;39.25;;;;;13.93;58.82;101453.41;5047595;28;46555;-58
2021/11/12 10:52:47;;;;;;;;;49.75;37.50;;;;;14.71;60.14;101437.06;5051321;28;45584;-58
2021/11/12 10:55:16;;;;;;;;;58.75;40.75;;;;;15.93;57.34;101428.28;5050299;28;46973;-59
2021/11/12 10:57:59;;;;;;;;;52.25;42.25;;;;;16.46;54.95;101420.06;5051541;28;45882;-60
2021/11/12 11:00:27;;;;;;;;;49.25;37.75;;;;;16.07;55.14;101423.38;5053433;28;45451;-58
2021/11/12 11:02:59;;;;;;;;;57.50;41.25;;;;;15.42;54.96;101413.59;5051606;28;45499;-58
2021/11/12 11:05:32;;;;;;;;;53.75;42.25;;;;;15.34;56.45;101413.00;5049537;28;45466;-58
2021/11/12 11:07:59;;;;;;;;;53.50;42.25;;;;;16.76;56.04;101417.09;5049995;28;45270;-58
2021/11/12 11:10:33;;;;;;;;;52.50;40.25;;;;;16.63;51.77;101430.72;5051214;28;45245;-57
2021/11/12 11:13:11;;;;;;;;;52.25;41.00;;;;;15.61;52.24;101431.25;5050998;28;45476;-58
2021/11/12 11:15:50;;;;;;;;;57.25;42.25;;;;;15.44;54.86;101424.88;5046634;28;45663;-58
2021/11/12 11:18:30;;;;;;;;;50.75;39.25;;;;;15.82;54.53;101415.59;5050056;28;45937;-57
2021/11/12 11:21:06;;;;;;;;;49.50;37.00;;;;;16.64;55.03;101416.69;5058923;28;45698;-58
2021/11/12 11:23:54;;;;;;;;;48.75;38.50;;;;;17.30;52.17;101416.47;5053573;28;45686;-59
2021/11/12 11:26:20;;;;;;;;;45.50;36.75;;;;;16.49;50.12;101417.31;5058123;28;47027;-59
2021/11/12 11:28:48;;;;;;;;;47.00;38.00;;;;;15.56;52.12;101425.31;5049198;28;45935;-60
2021/11/12 11:31:16;;;;;;;;;48.00;38.00;;;;;15.59;52.21;101433.94;5059384;28;45559;-59
2021/11/12 11:33:44;;;;;;;;;49.25;39.25;;;;;15.73;51.47;101428.19;5059578;28;45285;-59
2021/11/12 11:36:12;;;;;;;;;50.00;35.50;;;;;15.46;53.28;101417.81;5054815;28;47362;-59
2021/11/12 11:38:41;;;;;;;;;45.75;34.25;;;;;17.36;54.01;101410.94;5053520;28;45423;-59
2021/11/12 11:41:12;;;;;;;;;46.50;37.00;;;;;18.44;44.52;101432.16;5059710;28;45424;-60
2021/11/12 11:43:39;;;;;;;;;49.50;35.50;;;;;17.20;45.99;101433.56;5061688;28;45182;-68
2021/11/12 11:46:09;;;;;;;;;45.75;38.00;;;;;16.21;49.83;101424.56;5059217;28;46441;-57
2021/11/12 11:48:41;;;;;;;;;49.50;38.00;;;;;15.57;50.63;101427.00;5056585;28;45326;-57
2021/11/12 11:51:08;;;;;;;;;49.00;37.00;;;;;15.00;49.87;101433.44;5048965;28;45524;-57
2021/11/12 11:53:47;;;;;;;;;49.50;39.00;;;;;14.39;52.07;101420.59;5050097;28;45478;-57
2021/11/12 11:56:23;;;;;;;;;44.50;36.50;;;;;14.09;53.24;101414.59;5050894;28;46258;-57
2021/11/12 11:58:55;;;;;;;;;47.25;36.25;;;;;14.04;53.46;101402.59;5051351;28;46451;-57
2021/11/12 12:01:28;;;;;;;;;58.00;44.25;;;;;13.89;54.18;101410.00;5057639;28;45433;-57
2021/11/12 12:04:07;;;;;;;;;50.75;37.75;;;;;13.88;54.39;101396.97;5060676;28;45476;-57
2021/11/12 12:06:33;;;;;;;;;48.75;38.75;;;;;13.90;54.95;101382.97;5059299;28;45469;-57
2021/11/12 12:09:06;;;;;;;;;47.00;36.50;;;;;13.99;55.13;101389.66;5061581;28;45897;-48
2021/11/12 12:11:38;;;;;;;;;46.00;39.50;;;;;14.03;55.82;101377.38;5054155;28;45433;-48
2021/11/12 12:14:23;;;;;;;;;48.25;38.00;;;;;14.02;56.27;101381.75;5050519;28;45343;-50
2021/11/12 12:17:06;;;;;;;;;44.25;37.00;;;;;13.93;56.21;101376.78;5050054;28;45458;-50
2021/11/12 12:19:54;;;;;;;;;44.75;35.75;;;;;13.89;57.33;101373.41;5051412;28;45459;-48
2021/11/12 13:25:30;;;;;;;;;56.00;37.25;;;;;13.53;59.46;101283.13;5056453;28;46157;-62
2021/11/12 13:28:19;;;;;;;;;48.75;38.50;;;;;13.52;59.47;101279.66;5059881;28;45900;-62
2021/11/12 13:30:49;;;;;;;;;46.00;38.25;;;;;13.56;59.28;101277.81;5060054;28;45429;-62
2021/11/12 13:33:39;;;;;;;;;47.25;37.75;;;;;13.52;59.63;101265.75;5052829;28;45484;-62
2021/11/12 13:36:10;;;;;;;;;53.25;40.50;;;;;13.52;59.69;101269.22;5057604;28;46206;-62
2021/11/12 13:38:48;;;;;;;;;53.75;38.75;;;;;13.53;59.57;101263.09;5059661;28;45180;-60
2021/11/12 13:41:16;;;;;;;;;54.00;39.25;;;;;13.54;60.05;101262.19;5053098;28;45361;-59
2021/11/12 13:43:44;;;;;;;;;54.75;36.50;;;;;13.57;60.36;101264.69;5052501;28;45498;-60
2021/11/12 13:46:11;;;;;;;;;54.75;41.25;;;;;13.59;60.65;101265.50;5047261;28;45545;-58
2021/11/12 13:48:50;;;;;;;;;49.75;39.75;;;;;13.64;60.62;101255.78;5047934;28;45363;-58
2021/11/12 13:51:25;;;;;;;;;51.75;40.75;;;;;13.70;60.41;101247.75;5054531;28;45389;-58
2021/11/12 13:53:51;;;;;;;;;50.50;39.75;;;;;13.75;60.62;101244.97;5047961;28;45386;-58
2021/11/12 13:56:16;;;;;;;;;55.75;39.00;;;;;13.78;60.51;101251.84;5040714;28;46091;-58
2021/11/12 13:58:42;;;;;;;;;53.25;39.00;;;;;13.75;60.70;101246.75;5048422;28;45346;-58
2021/11/12 14:01:23;;;;;;;;;50.50;39.25;;;;;13.69;60.91;101253.88;5055502;28;45450;-57
2021/11/12 14:03:50;;;;;;;;;54.25;39.75;;;;;13.70;61.11;101250.34;5055845;28;45453;-57
2021/11/12 14:06:17;;;;;;;;;51.00;40.25;;;;;13.71;61.18;101238.16;5048872;28;46419;-58
2021/11/12 14:08:44;;;;;;;;;47.00;37.50;;;;;13.76;61.36;101238.84;5049814;28;45812;-60
2021/11/12 14:11:26;;;;;;;;;53.25;40.00;;;;;13.78;61.66;101237.03;5057957;28;45379;-58
2021/11/12 14:13:56;;;;;;;;;51.75;41.50;;;;;13.78;61.73;101229.19;5048770;28;45537;-58
2021/11/12 14:16:54;;;;;;;;;52.75;42.50;;;;;13.75;61.94;101223.22;5059226;28;46078;-57
2021/11/12 14:22:16;;;;;;;;;55.50;43.50;;;;;13.68;62.14;101218.22;5054395;28;45540;-57
2021/11/12 14:24:48;;;;;;;;;60.50;42.75;;;;;13.66;62.41;101216.56;5054225;28;45322;-57
2021/11/12 14:35:29;;;;;;;;;70.25;48.50;;;;;13.51;63.46;101230.09;5047653;28;45468;-57
2021/11/12 14:46:18;;;;;;;;;52.25;43.25;;;;;13.48;63.96;101210.16;5057644;28;45334;-58
2021/11/12 14:48:56;;;;;;;;;57.50;46.00;;;;;13.43;64.18;101206.84;5058991;28;46262;-57
2021/11/12 14:51:37;;;;;;;;;54.75;43.25;;;;;13.39;64.51;101206.06;5058585;28;45428;-57
2021/11/12 14:54:10;;;;;;;;;56.75;46.25;;;;;13.38;64.50;101208.75;5052014;28;47284;-57
2021/11/12 14:56:36;;;;;;;;;55.25;43.00;;;;;13.37;64.88;101212.25;5049007;28;45407;-58
2021/11/12 14:59:04;;;;;;;;;57.75;45.75;;;;;13.35;64.96;101211.44;5047549;28;45942;-58
2021/11/12 15:01:32;;;;;;;;;55.00;45.00;;;;;13.30;65.22;101211.59;5048346;28;46206;-58
2021/11/12 15:03:58;;;;;;;;;55.25;45.00;;;;;13.29;65.31;101219.47;5049876;28;45300;-58
2021/11/12 15:06:26;;;;;;;;;56.50;45.00;;;;;13.27;65.50;101224.75;5047547;28;45440;-58
2021/11/12 15:09:12;;;;;;;;;67.00;47.75;;;;;13.23;65.82;101223.16;5051020;28;46284;-58
2021/11/12 15:11:38;;;;;;;;;58.00;45.50;;;;;13.21;65.76;101226.66;5058385;28;45824;-57
2021/11/12 15:14:06;;;;;;;;;58.00;47.00;;;;;13.19;66.28;101207.59;5058312;28;45447;-58
2021/11/12 15:16:33;;;;;;;;;57.50;44.00;;;;;13.18;66.53;101211.97;5058199;28;45437;-58
2021/11/12 15:19:00;;;;;;;;;58.00;45.50;;;;;13.16;66.60;101211.13;5057721;28;46536;-58
2021/11/12 15:27:40;;;;;;;;;60.25;41.50;;;;;15.70;64.66;101210.81;5036109;28;45391;-58
2021/11/12 15:30:09;;;;;;;;;58.50;45.25;;;;;17.00;62.63;101213.84;5052587;28;46268;-58
2021/11/12 15:32:37;;;;;;;;;59.75;45.00;;;;;18.06;59.92;101220.13;5058226;28;45282;-58
2021/11/12 15:35:06;;;;;;;;;52.50;42.25;;;;;18.91;58.11;101227.94;5057937;28;45322;-58
2021/11/12 15:40:30;;;;;;;;;53.50;41.75;;;;;19.25;55.30;101221.66;5054069;28;45502;-58
2021/11/12 15:43:11;;;;;;;;;53.00;43.75;;;;;19.31;54.34;101219.53;5061712;28;45905;-59
2021/11/12 15:45:49;;;;;;;;;51.75;43.00;;;;;19.47;54.15;101230.06;5057709;28;45480;-62
2021/11/12 15:48:23;;;;;;;;;46.00;35.00;;;;;19.47;53.55;101232.69;5052543;28;45261;-63
2021/11/12 16:01:43;;;;;;;;;57.75;43.75;;;;;16.20;56.15;101220.94;5060952;28;46063;-62
2021/11/12 16:09:51;;;;;;;;;53.50;42.00;;;;;14.54;60.38;101236.22;5061570;28;45339;-60
2021/11/12 16:12:35;;;;;;;;;71.25;54.25;;;;;14.23;61.02;101234.66;5056843;28;46678;-59
2021/11/12 16:17:54;;;;;;;;;52.50;42.75;;;;;13.69;63.28;101222.53;5056582;28;45332;-59
2021/11/12 16:20:43;;;;;;;;;59.25;43.00;;;;;13.52;64.14;101232.66;5061596;28;45236;-59
2021/11/12 16:25:41;;;;;;;;;52.50;42.50;;;;;13.26;65.14;101236.09;5054700;28;45905;-59
2021/11/12 16:28:09;;;;;;;;;54.75;42.75;;;;;13.18;65.55;101224.16;5061453;28;45303;-58
2021/11/12 16:30:36;;;;;;;;;52.25;40.75;;;;;13.15;65.69;101227.69;5060754;28;45561;-58
2021/11/12 16:33:04;;;;;;;;;53.75;41.75;;;;;13.10;65.42;101226.97;5061633;28;46552;-59
2021/11/12 16:35:33;;;;;;;;;53.00;40.25;;;;;13.05;66.47;101232.34;5055604;28;45905;-59
2021/11/12 16:41:06;;;;;;;;;58.00;43.00;;;;;12.94;67.81;101226.56;5060134;28;45532;-60
2021/11/12 16:46:22;;;;;;;;;54.75;43.50;;;;;12.83;68.41;101225.19;5058633;28;45301;-61
2021/11/12 16:48:55;;;;;;;;;62.50;44.50;;;;;12.75;68.72;101226.25;5060736;28;45358;-60
2021/11/12 16:51:40;;;;;;;;;56.50;43.75;;;;;12.69;69.15;101222.97;5060000;28;45466;-60
2021/11/12 17:46:53;;;;;;;;;36.25;30.25;;;;;12.21;71.99;101170.44;5058702;28;45654;-60